Time;durP1;ratioP1;P1;durP2;ratioP2;P2;SDS_P1;SDS_P2;PMS_P1;PMS_P2;Temp;Humidity;BMP_temperature;BMP_pressure;BME280_temperature;BME280_humidity;BME280_pressure;Samples;Min_cycle;Max_cycle;Signal;HPM_P1;HPM_P2
2022/04/29 00:01:04;;;;;;;9.17;8.23;;;;;;;;;;5093034;28;20285;-87
2022/04/29 00:03:35;;;;;;;12.57;11.27;;;;;;;;;;5093074;28;20318;-87
2022/04/29 00:06:02;;;;;;;11.57;10.40;;;;;;;;;;5093153;28;20746;-87
2022/04/29 00:08:30;;;;;;;9.87;8.97;;;;;;;;;;5093188;28;20203;-87
2022/04/29 00:11:00;;;;;;;11.67;10.63;;;;;;;;;;5092846;28;20227;-87
2022/04/29 00:13:28;;;;;;;11.70;10.50;;;;;;;;;;5093068;28;20196;-87
2022/04/29 00:15:55;;;;;;;10.93;9.83;;;;;;;;;;5092811;28;20693;-87
2022/04/29 00:18:25;;;;;;;12.23;11.03;;;;;;;;;;5093056;28;20222;-87
2022/04/29 00:20:52;;;;;;;11.87;10.33;;;;;;;;;;5092710;28;20191;-87
2022/04/29 00:23:22;;;;;;;11.63;10.37;;;;;;;;;;5092961;28;20302;-86
2022/04/29 00:25:51;;;;;;;11.90;10.80;;;;;;;;;;5092898;28;20195;-87
2022/04/29 00:28:27;;;;;;;11.57;10.37;;;;;;;;;;5092826;28;20288;-87
2022/04/29 00:30:54;;;;;;;11.53;10.43;;;;;;;;;;5092904;28;20326;-87
2022/04/29 00:33:22;;;;;;;11.53;10.43;;;;;;;;;;5092650;28;20199;-87
2022/04/29 00:35:49;;;;;;;12.40;11.10;;;;;;;;;;5092739;28;20674;-87
2022/04/29 00:38:17;;;;;;;10.90;9.90;;;;;;;;;;5092546;28;20203;-87
2022/04/29 00:40:45;;;;;;;12.03;10.77;;;;;;;;;;5092720;28;20277;-87
2022/04/29 00:43:17;;;;;;;11.73;10.53;;;;;;;;;;5092661;28;20246;-86
2022/04/29 00:45:44;;;;;;;10.80;9.80;;;;;;;;;;5092233;28;20194;-87
2022/04/29 00:48:14;;;;;;;10.57;9.63;;;;;;;;;;5096816;28;20658;-86
2022/04/29 00:50:41;;;;;;;10.70;9.67;;;;;;;;;;5096080;28;20585;-86
2022/04/29 00:53:09;;;;;;;10.60;9.60;;;;;;;;;;5096913;28;20198;-86
2022/04/29 00:55:37;;;;;;;10.90;9.90;;;;;;;;;;5096498;28;20192;-87
2022/04/29 00:58:22;;;;;;;9.70;8.80;;;;;;;;;;5096536;28;20199;-87
2022/04/29 01:00:49;;;;;;;10.67;9.60;;;;;;;;;;5096680;28;20188;-87
2022/04/29 01:03:17;;;;;;;10.10;9.17;;;;;;;;;;5096709;28;20215;-87
2022/04/29 01:05:44;;;;;;;11.03;10.03;;;;;;;;;;5096482;28;20192;-87
2022/04/29 01:08:14;;;;;;;10.07;9.27;;;;;;;;;;5096391;28;20550;-87
2022/04/29 01:10:42;;;;;;;10.00;9.13;;;;;;;;;;5096429;28;20231;-87
2022/04/29 01:13:12;;;;;;;10.17;9.10;;;;;;;;;;5096248;28;20209;-87
2022/04/29 01:15:51;;;;;;;12.13;11.03;;;;;;;;;;5095930;28;20233;-87
2022/04/29 01:18:18;;;;;;;10.77;9.47;;;;;;;;;;5096581;28;20196;-86
2022/04/29 01:20:45;;;;;;;11.17;10.03;;;;;;;;;;5095748;28;20283;-87
2022/04/29 01:23:16;;;;;;;12.00;10.40;;;;;;;;;;5096417;28;20207;-87
2022/04/29 01:25:44;;;;;;;11.27;9.30;;;;;;;;;;5096025;28;20287;-86
2022/04/29 01:28:11;;;;;;;12.77;9.80;;;;;;;;;;5096152;28;20684;-87
2022/04/29 01:30:45;;;;;;;9.30;8.43;;;;;;;;;;5096213;28;20573;-86
2022/04/29 01:33:16;;;;;;;10.23;9.33;;;;;;;;;;5096214;28;20191;-86
2022/04/29 01:35:43;;;;;;;11.53;9.00;;;;;;;;;;5095742;28;20573;-86
2022/04/29 01:38:10;;;;;;;10.10;9.13;;;;;;;;;;5095931;28;20284;-87
2022/04/29 01:40:42;;;;;;;10.20;9.20;;;;;;;;;;5095781;28;20707;-86
2022/04/29 01:43:10;;;;;;;14.77;9.37;;;;;;;;;;5095575;28;20192;-86
2022/04/29 01:45:37;;;;;;;9.93;9.03;;;;;;;;;;5095659;28;20704;-87
2022/04/29 01:48:10;;;;;;;10.30;9.40;;;;;;;;;;5095852;28;20314;-87
2022/04/29 01:50:37;;;;;;;10.30;9.37;;;;;;;;;;5095576;28;20742;-87
2022/04/29 01:53:05;;;;;;;9.17;8.33;;;;;;;;;;5095741;28;20207;-86
2022/04/29 01:55:35;;;;;;;9.90;9.00;;;;;;;;;;5095843;28;20284;-87
2022/04/29 01:58:05;;;;;;;10.50;9.50;;;;;;;;;;5094523;28;20276;-87
2022/04/29 02:00:32;;;;;;;11.23;10.13;;;;;;;;;;5095398;28;20295;-86
2022/04/29 02:02:59;;;;;;;13.47;10.70;;;;;;;;;;5095399;28;20613;-86
2022/04/29 02:05:29;;;;;;;10.53;9.10;;;;;;;;;;5095157;28;20192;-87
2022/04/29 02:07:57;;;;;;;10.63;9.53;;;;;;;;;;5095318;28;20199;-87
2022/04/29 02:10:24;;;;;;;10.67;7.90;;;;;;;;;;5095211;28;20227;-86
2022/04/29 02:12:52;;;;;;;9.17;8.27;;;;;;;;;;5095059;28;20196;-86
2022/04/29 02:15:21;;;;;;;10.53;9.40;;;;;;;;;;5095052;28;20197;-87
2022/04/29 02:17:48;;;;;;;10.13;8.77;;;;;;;;;;5095350;28;20573;-87
2022/04/29 02:20:15;;;;;;;11.33;8.87;;;;;;;;;;5095158;28;20565;-87
2022/04/29 02:22:48;;;;;;;13.73;9.07;;;;;;;;;;5095029;28;20202;-87
2022/04/29 02:25:18;;;;;;;14.07;9.07;;;;;;;;;;5095302;28;20197;-87
2022/04/29 02:27:46;;;;;;;10.37;9.40;;;;;;;;;;5095465;28;20196;-87
2022/04/29 02:30:14;;;;;;;10.07;9.07;;;;;;;;;;5094753;28;20220;-87
2022/04/29 02:32:42;;;;;;;10.60;9.50;;;;;;;;;;5094650;28;20253;-87
2022/04/29 02:35:10;;;;;;;11.03;9.93;;;;;;;;;;5094836;28;20202;-87
2022/04/29 02:37:44;;;;;;;11.00;9.90;;;;;;;;;;5094756;28;20250;-87
2022/04/29 02:40:12;;;;;;;13.00;9.73;;;;;;;;;;5094818;28;20203;-87
2022/04/29 02:42:39;;;;;;;11.10;9.90;;;;;;;;;;5095055;28;20275;-87
2022/04/29 02:45:08;;;;;;;11.37;10.27;;;;;;;;;;5094614;28;20694;-87
2022/04/29 02:47:35;;;;;;;10.60;9.50;;;;;;;;;;5094519;28;20283;-87
2022/04/29 02:50:05;;;;;;;11.83;9.37;;;;;;;;;;5094403;28;20611;-87
2022/04/29 02:52:32;;;;;;;11.97;9.53;;;;;;;;;;5094344;28;20188;-87
2022/04/29 02:55:00;;;;;;;11.70;9.93;;;;;;;;;;5094566;28;20276;-87
2022/04/29 02:57:27;;;;;;;9.07;8.23;;;;;;;;;;5094466;28;20199;-86
2022/04/29 02:59:57;;;;;;;9.77;8.87;;;;;;;;;;5094764;28;20305;-86
2022/04/29 03:02:24;;;;;;;9.53;8.53;;;;;;;;;;5094454;28;20203;-87
2022/04/29 03:04:54;;;;;;;9.07;8.27;;;;;;;;;;5094194;28;20570;-87
2022/04/29 03:07:23;;;;;;;10.70;9.00;;;;;;;;;;5094018;28;20189;-87
2022/04/29 03:09:56;;;;;;;10.50;9.40;;;;;;;;;;5094083;28;20204;-86
2022/04/29 03:12:24;;;;;;;13.27;10.67;;;;;;;;;;5094128;28;20185;-87
2022/04/29 03:15:15;;;;;;;10.27;9.23;;;;;;;;;;5093570;28;20592;-87
2022/04/29 03:20:39;;;;;;;10.67;9.57;;;;;;;;;;5094051;28;20652;-86
2022/04/29 03:23:08;;;;;;;11.57;10.13;;;;;;;;;;5093900;28;20224;-87
2022/04/29 03:25:36;;;;;;;11.80;10.70;;;;;;;;;;5093852;28;20206;-87
2022/04/29 03:28:06;;;;;;;11.70;9.90;;;;;;;;;;5094086;28;20200;-87
2022/04/29 03:30:33;;;;;;;12.20;9.30;;;;;;;;;;5092990;28;20226;-87
2022/04/29 03:33:02;;;;;;;12.50;9.47;;;;;;;;;;5093888;28;20197;-88
2022/04/29 03:35:32;;;;;;;13.50;10.17;;;;;;;;;;5093627;28;20193;-87
2022/04/29 03:37:59;;;;;;;11.87;10.40;;;;;;;;;;5093582;28;20232;-87
2022/04/29 03:40:28;;;;;;;11.03;9.93;;;;;;;;;;5093430;28;20287;-86
2022/04/29 03:42:56;;;;;;;12.50;10.60;;;;;;;;;;5093351;28;20200;-87
2022/04/29 03:45:26;;;;;;;11.93;10.03;;;;;;;;;;5093353;28;20196;-87
2022/04/29 03:47:54;;;;;;;12.33;11.03;;;;;;;;;;5093592;28;20207;-87
2022/04/29 03:50:23;;;;;;;12.80;11.37;;;;;;;;;;5093077;28;20228;-88
2022/04/29 03:52:55;;;;;;;12.57;10.90;;;;;;;;;;5093576;28;20203;-88
2022/04/29 03:55:28;;;;;;;13.53;11.57;;;;;;;;;;5093411;28;20184;-88
2022/04/29 03:57:56;;;;;;;12.57;11.27;;;;;;;;;;5093887;28;20239;-88
2022/04/29 04:00:26;;;;;;;11.20;10.07;;;;;;;;;;5093245;28;20189;-87
2022/04/29 04:02:53;;;;;;;12.87;11.23;;;;;;;;;;5093221;28;20200;-88
2022/04/29 04:05:20;;;;;;;13.17;11.63;;;;;;;;;;5093103;28;20207;-88
2022/04/29 04:07:48;;;;;;;14.60;12.03;;;;;;;;;;5093473;28;20199;-87
2022/04/29 04:10:15;;;;;;;15.80;14.17;;;;;;;;;;5092868;28;20224;-88
2022/04/29 04:12:46;;;;;;;10.30;9.30;;;;;;;;;;5093272;28;20193;-88
2022/04/29 04:15:21;;;;;;;12.73;11.37;;;;;;;;;;5093288;28;20226;-87
2022/04/29 04:17:51;;;;;;;13.57;11.53;;;;;;;;;;5093097;28;20196;-88
2022/04/29 04:20:19;;;;;;;9.90;8.80;;;;;;;;;;5093093;28;20204;-88
2022/04/29 04:22:46;;;;;;;10.83;9.63;;;;;;;;;;5092711;28;20200;-88
2022/04/29 04:25:15;;;;;;;12.27;10.87;;;;;;;;;;5093034;28;20196;-87
2022/04/29 04:27:46;;;;;;;11.87;10.57;;;;;;;;;;5092758;28;20661;-86
2022/04/29 04:30:14;;;;;;;10.77;9.83;;;;;;;;;;5092590;28;20283;-88
2022/04/29 04:32:42;;;;;;;9.50;8.50;;;;;;;;;;5090414;28;20254;-87
2022/04/29 04:35:12;;;;;;;9.20;8.40;;;;;;;;;;5092677;28;20295;-87
2022/04/29 04:37:40;;;;;;;11.30;8.53;;;;;;;;;;5092835;28;20200;-87
2022/04/29 04:40:08;;;;;;;12.17;8.97;;;;;;;;;;5092612;28;20196;-87
2022/04/29 04:42:44;;;;;;;8.63;7.77;;;;;;;;;;5092122;28;20283;-86
2022/04/29 04:45:14;;;;;;;9.93;8.93;;;;;;;;;;5092231;28;20180;-87
2022/04/29 04:47:41;;;;;;;9.03;8.20;;;;;;;;;;5092936;28;20208;-87
2022/04/29 04:50:09;;;;;;;8.83;8.03;;;;;;;;;;5092407;28;20244;-85
2022/04/29 04:52:39;;;;;;;10.53;9.53;;;;;;;;;;5093480;28;20674;-89
2022/04/29 04:55:07;;;;;;;9.33;8.50;;;;;;;;;;5092806;28;20229;-89
2022/04/29 04:57:40;;;;;;;10.60;9.00;;;;;;;;;;5092865;28;20274;-89
2022/04/29 05:00:09;;;;;;;10.83;9.27;;;;;;;;;;5092680;28;20200;-90
2022/04/29 05:02:43;;;;;;;9.60;8.63;;;;;;;;;;5092814;28;20279;-90
2022/04/29 05:05:11;;;;;;;10.50;9.40;;;;;;;;;;5092128;28;20196;-88
2022/04/29 05:07:40;;;;;;;11.67;9.37;;;;;;;;;;5092554;28;20676;-88
2022/04/29 05:10:13;;;;;;;8.97;8.17;;;;;;;;;;5092366;28;20200;-89
2022/04/29 05:12:42;;;;;;;9.80;8.80;;;;;;;;;;5092725;28;20196;-87
2022/04/29 05:15:10;;;;;;;10.33;9.27;;;;;;;;;;5092339;28;20546;-89
2022/04/29 05:17:40;;;;;;;11.77;9.70;;;;;;;;;;5092732;28;20203;-89
2022/04/29 05:20:10;;;;;;;11.43;9.97;;;;;;;;;;5092758;28;20590;-89
2022/04/29 05:22:38;;;;;;;12.07;9.70;;;;;;;;;;5092564;28;20660;-89
2022/04/29 05:25:06;;;;;;;13.83;10.33;;;;;;;;;;5092102;28;20671;-89
2022/04/29 05:27:42;;;;;;;11.57;10.10;;;;;;;;;;5092654;28;20577;-89
2022/04/29 05:30:10;;;;;;;10.67;9.57;;;;;;;;;;5092117;28;20195;-88
2022/04/29 05:32:39;;;;;;;10.00;9.07;;;;;;;;;;5092245;28;20216;-88
2022/04/29 05:35:16;;;;;;;10.40;9.40;;;;;;;;;;5095991;28;20200;-89
2022/04/29 05:37:44;;;;;;;9.93;8.90;;;;;;;;;;5096092;28;20196;-88
2022/04/29 05:43:08;;;;;;;8.83;7.60;;;;;;;;;;5096343;28;20715;-89
2022/04/29 05:45:36;;;;;;;9.73;8.83;;;;;;;;;;5096033;28;20690;-89
2022/04/29 05:48:18;;;;;;;11.07;9.50;;;;;;;;;;5095930;28;20196;-89
2022/04/29 05:50:47;;;;;;;8.80;7.90;;;;;;;;;;5095707;28;20240;-89
2022/04/29 05:53:15;;;;;;;9.77;8.77;;;;;;;;;;5096423;28;20198;-89
2022/04/29 05:55:42;;;;;;;11.40;9.10;;;;;;;;;;5095965;28;20210;-89
2022/04/29 05:58:09;;;;;;;9.87;8.17;;;;;;;;;;5096527;28;20192;-89
2022/04/29 06:00:37;;;;;;;9.53;8.00;;;;;;;;;;5095693;28;20207;-88
2022/04/29 06:03:04;;;;;;;9.60;8.70;;;;;;;;;;5095616;28;20659;-89
2022/04/29 06:05:32;;;;;;;7.80;6.73;;;;;;;;;;5095736;28;20202;-89
2022/04/29 06:08:00;;;;;;;8.63;7.83;;;;;;;;;;5095563;28;20192;-89
2022/04/29 06:10:27;;;;;;;7.23;6.53;;;;;;;;;;5095624;28;20279;-89
2022/04/29 06:12:54;;;;;;;9.37;8.37;;;;;;;;;;5095614;28;20220;-89
2022/04/29 06:15:23;;;;;;;9.43;7.57;;;;;;;;;;5095467;28;20200;-89
2022/04/29 06:17:50;;;;;;;8.03;7.23;;;;;;;;;;5095479;28;20196;-90
2022/04/29 06:20:18;;;;;;;8.43;7.63;;;;;;;;;;5095439;28;20200;-90
2022/04/29 06:22:45;;;;;;;8.03;6.43;;;;;;;;;;5095233;28;20197;-89
2022/04/29 06:25:14;;;;;;;9.30;7.27;;;;;;;;;;5094995;28;20196;-89
2022/04/29 06:27:42;;;;;;;8.00;7.20;;;;;;;;;;5095110;28;20227;-89
2022/04/29 06:30:18;;;;;;;8.83;7.93;;;;;;;;;;5095169;28;20249;-90
2022/04/29 06:32:49;;;;;;;7.97;7.17;;;;;;;;;;5095213;28;20223;-90
2022/04/29 06:35:19;;;;;;;7.47;6.77;;;;;;;;;;5095149;28;20200;-90
2022/04/29 06:37:46;;;;;;;8.80;7.90;;;;;;;;;;5094958;28;20196;-90
2022/04/29 06:40:20;;;;;;;11.43;8.17;;;;;;;;;;5094990;28;20196;-90
2022/04/29 06:42:49;;;;;;;8.87;7.97;;;;;;;;;;5094907;28;20192;-90
2022/04/29 06:45:22;;;;;;;8.70;7.80;;;;;;;;;;5094602;28;20204;-90
2022/04/29 06:47:49;;;;;;;8.63;7.83;;;;;;;;;;5094705;28;20197;-90
2022/04/29 06:50:17;;;;;;;8.13;7.33;;;;;;;;;;5094330;28;20243;-90
2022/04/29 06:52:44;;;;;;;8.50;7.73;;;;;;;;;;5094527;28;20311;-90
2022/04/29 06:55:14;;;;;;;7.17;6.47;;;;;;;;;;5094274;28;20279;-90
2022/04/29 06:57:43;;;;;;;8.40;7.43;;;;;;;;;;5094780;28;20207;-90
2022/04/29 07:00:11;;;;;;;8.13;7.33;;;;;;;;;;5094435;28;20223;-90
2022/04/29 07:02:38;;;;;;;8.33;7.27;;;;;;;;;;5094470;28;20193;-90
2022/04/29 07:05:08;;;;;;;7.53;6.83;;;;;;;;;;5094548;28;20192;-90
2022/04/29 07:07:38;;;;;;;7.80;7.00;;;;;;;;;;5094672;28;20197;-90
2022/04/29 07:10:09;;;;;;;8.00;7.23;;;;;;;;;;5094733;28;20206;-90
2022/04/29 07:12:42;;;;;;;7.63;6.93;;;;;;;;;;5094361;28;20232;-90
2022/04/29 07:15:16;;;;;;;8.03;7.27;;;;;;;;;;5094167;28;20188;-90
2022/04/29 07:18:02;;;;;;;7.13;6.47;;;;;;;;;;5094357;28;20697;-90
2022/04/29 07:20:29;;;;;;;10.50;6.00;;;;;;;;;;5094109;28;20301;-90
2022/04/29 07:23:02;;;;;;;6.97;6.37;;;;;;;;;;5094244;28;20632;-91
2022/04/29 07:25:30;;;;;;;6.83;6.20;;;;;;;;;;5093821;28;20200;-91
2022/04/29 07:28:01;;;;;;;7.20;6.50;;;;;;;;;;5094154;28;20592;-91
2022/04/29 07:30:29;;;;;;;6.00;5.50;;;;;;;;;;5094006;28;20205;-91
2022/04/29 07:33:05;;;;;;;8.00;7.27;;;;;;;;;;5093750;28;20234;-90
2022/04/29 07:41:47;;;;;;;7.97;6.23;;;;;;;;;;5094247;28;20233;-91
2022/04/29 07:44:19;;;;;;;6.63;6.03;;;;;;;;;;5093510;28;20224;-91
2022/04/29 07:46:48;;;;;;;6.30;5.70;;;;;;;;;;5093751;28;20194;-91
2022/04/29 07:49:18;;;;;;;7.30;6.67;;;;;;;;;;5093390;28;20269;-91
2022/04/29 07:51:45;;;;;;;6.53;5.93;;;;;;;;;;5093148;28;20324;-90
2022/04/29 07:54:23;;;;;;;7.50;6.63;;;;;;;;;;5093323;28;20218;-92
2022/04/29 07:56:56;;;;;;;7.27;6.37;;;;;;;;;;5092531;28;20200;-91
2022/04/29 07:59:25;;;;;;;6.73;6.13;;;;;;;;;;5093324;28;20193;-92
2022/04/29 08:01:52;;;;;;;9.27;7.70;;;;;;;;;;5093171;28;20188;-91
2022/04/29 08:04:19;;;;;;;6.20;5.70;;;;;;;;;;5093761;28;20638;-90
2022/04/29 08:06:46;;;;;;;8.53;6.90;;;;;;;;;;5093527;28;20184;-91
2022/04/29 08:09:13;;;;;;;8.47;7.57;;;;;;;;;;5093206;28;20202;-91
2022/04/29 08:11:44;;;;;;;7.37;6.73;;;;;;;;;;5092822;28;20216;-91
2022/04/29 08:14:11;;;;;;;7.07;6.40;;;;;;;;;;5093105;28;20224;-91
2022/04/29 08:16:44;;;;;;;6.40;5.90;;;;;;;;;;5093053;28;20200;-90
2022/04/29 08:19:14;;;;;;;6.70;6.10;;;;;;;;;;5092965;28;20285;-91
2022/04/29 08:21:50;;;;;;;7.20;6.07;;;;;;;;;;5093088;28;20193;-91
2022/04/29 08:24:21;;;;;;;7.17;6.47;;;;;;;;;;5093032;28;20196;-91
2022/04/29 08:26:51;;;;;;;7.03;6.30;;;;;;;;;;5093072;28;20202;-91
2022/04/29 08:29:18;;;;;;;6.67;6.07;;;;;;;;;;5093183;28;20208;-90
2022/04/29 08:31:50;;;;;;;6.53;5.93;;;;;;;;;;5093075;28;20224;-91
2022/04/29 08:34:20;;;;;;;7.70;7.00;;;;;;;;;;5093234;28;20232;-90
2022/04/29 08:36:51;;;;;;;9.33;6.20;;;;;;;;;;5092981;28;20200;-90
2022/04/29 08:39:21;;;;;;;6.90;5.83;;;;;;;;;;5092765;28;20293;-90
2022/04/29 08:41:49;;;;;;;6.60;6.10;;;;;;;;;;5093107;28;20238;-91
2022/04/29 08:44:18;;;;;;;8.33;5.93;;;;;;;;;;5092832;28;20192;-90
2022/04/29 08:46:56;;;;;;;6.67;6.07;;;;;;;;;;5092794;28;20192;-91
2022/04/29 08:49:24;;;;;;;6.87;6.17;;;;;;;;;;5092979;28;20278;-91
2022/04/29 08:51:57;;;;;;;7.73;6.03;;;;;;;;;;5092984;28;20230;-90
2022/04/29 09:00:00;;;;;;;6.53;6.03;;;;;;;;;;5092887;28;20300;-90
2022/04/29 09:02:39;;;;;;;6.97;6.27;;;;;;;;;;5093494;28;20192;-90
2022/04/29 09:05:11;;;;;;;6.70;5.93;;;;;;;;;;5093443;28;20263;-90
2022/04/29 09:07:59;;;;;;;7.80;6.23;;;;;;;;;;5094218;28;20196;-90
2022/04/29 09:10:30;;;;;;;6.63;6.03;;;;;;;;;;5096766;28;20250;-90
2022/04/29 09:13:11;;;;;;;6.83;6.23;;;;;;;;;;5096599;28;20216;-90
2022/04/29 09:15:39;;;;;;;7.03;6.43;;;;;;;;;;5096582;28;20203;-90
2022/04/29 09:18:10;;;;;;;6.70;6.10;;;;;;;;;;5096408;28;20200;-90
2022/04/29 09:20:38;;;;;;;6.20;5.60;;;;;;;;;;5096717;28;20636;-90
2022/04/29 09:23:10;;;;;;;6.87;6.27;;;;;;;;;;5096731;28;20206;-90
2022/04/29 09:25:37;;;;;;;7.60;5.93;;;;;;;;;;5096139;28;20211;-90
2022/04/29 09:28:25;;;;;;;7.27;6.47;;;;;;;;;;5096439;28;20200;-90
2022/04/29 09:30:56;;;;;;;6.50;5.97;;;;;;;;;;5096484;28;20279;-90
2022/04/29 09:33:26;;;;;;;5.53;5.03;;;;;;;;;;5096496;28;20223;-90
2022/04/29 09:35:54;;;;;;;6.53;5.93;;;;;;;;;;5096210;28;20192;-90
2022/04/29 09:41:24;;;;;;;6.70;6.10;;;;;;;;;;5096257;28;20180;-89
2022/04/29 09:43:52;;;;;;;7.17;5.87;;;;;;;;;;5095808;28;20196;-89
2022/04/29 09:46:32;;;;;;;6.47;5.73;;;;;;;;;;5096149;28;20283;-90
2022/04/29 09:49:19;;;;;;;8.63;7.07;;;;;;;;;;5096141;28;20200;-90
2022/04/29 09:51:59;;;;;;;7.10;6.40;;;;;;;;;;5095616;28;20307;-89
2022/04/29 09:54:31;;;;;;;8.03;6.30;;;;;;;;;;5095660;28;20189;-90
2022/04/29 09:57:14;;;;;;;7.90;7.10;;;;;;;;;;5095935;28;20203;-90
2022/04/29 10:00:00;;;;;;;6.10;5.50;;;;;;;;;;5095623;28;20258;-89
2022/04/29 10:02:30;;;;;;;6.37;5.77;;;;;;;;;;5095894;28;20196;-90
2022/04/29 10:04:59;;;;;;;6.27;5.73;;;;;;;;;;5095506;28;20220;-89
2022/04/29 10:07:26;;;;;;;6.50;5.93;;;;;;;;;;5095517;28;20200;-90
2022/04/29 10:09:55;;;;;;;6.27;5.67;;;;;;;;;;5095448;28;20204;-90
2022/04/29 10:12:27;;;;;;;7.03;5.80;;;;;;;;;;5095416;28;20224;-90
2022/04/29 10:14:57;;;;;;;7.40;6.70;;;;;;;;;;5095412;28;20192;-90
2022/04/29 10:23:21;;;;;;;6.93;6.23;;;;;;;;;;5095875;28;20283;-90
2022/04/29 10:25:49;;;;;;;7.33;6.63;;;;;;;;;;5095450;28;20619;-91
2022/04/29 10:28:28;;;;;;;7.27;6.53;;;;;;;;;;5095413;28;20196;-90
2022/04/29 10:31:00;;;;;;;7.97;7.00;;;;;;;;;;5094982;28;20665;-90
2022/04/29 10:33:28;;;;;;;6.83;6.23;;;;;;;;;;5095162;28;20205;-90
2022/04/29 10:35:57;;;;;;;8.80;5.83;;;;;;;;;;5094943;28;20203;-90
2022/04/29 10:38:38;;;;;;;8.53;6.90;;;;;;;;;;5095219;28;20196;-90
2022/04/29 10:41:21;;;;;;;6.80;6.20;;;;;;;;;;5094983;28;20199;-90
2022/04/29 10:44:06;;;;;;;8.30;7.60;;;;;;;;;;5094864;28;20200;-90
2022/04/29 10:46:43;;;;;;;10.83;7.13;;;;;;;;;;5094881;28;20231;-90
2022/04/29 10:49:46;;;;;;;6.73;6.13;;;;;;;;;;5094658;28;20207;-91
2022/04/29 10:52:28;;;;;;;6.70;6.10;;;;;;;;;;5084305;28;20234;-90
2022/04/29 10:54:58;;;;;;;7.50;6.53;;;;;;;;;;5094746;28;20196;-90
2022/04/29 10:57:41;;;;;;;7.83;7.03;;;;;;;;;;5094665;28;20203;-91
2022/04/29 11:00:12;;;;;;;6.40;5.80;;;;;;;;;;5094509;28;20192;-91
2022/04/29 11:02:40;;;;;;;7.57;6.83;;;;;;;;;;5094806;28;20238;-91
2022/04/29 11:05:36;;;;;;;6.87;6.27;;;;;;;;;;5094557;28;20681;-91
2022/04/29 11:08:20;;;;;;;7.03;6.43;;;;;;;;;;5094604;28;20245;-91
2022/04/29 11:10:54;;;;;;;6.90;6.20;;;;;;;;;;5094359;28;20199;-91
2022/04/29 11:13:23;;;;;;;8.83;7.20;;;;;;;;;;5094330;28;20578;-91
2022/04/29 11:15:51;;;;;;;7.27;6.63;;;;;;;;;;5094338;28;20578;-91
2022/04/29 11:18:25;;;;;;;6.93;6.23;;;;;;;;;;5094001;28;20661;-91
2022/04/29 11:27:00;;;;;;;6.67;5.87;;;;;;;;;;5094210;28;20183;-91
2022/04/29 11:29:27;;;;;;;7.30;6.60;;;;;;;;;;5094470;28;20202;-91
2022/04/29 11:31:56;;;;;;;7.00;6.50;;;;;;;;;;5094436;28;20725;-91
2022/04/29 11:34:29;;;;;;;8.23;7.43;;;;;;;;;;5094145;28;20643;-91
2022/04/29 11:36:58;;;;;;;7.63;6.77;;;;;;;;;;5093754;28;20679;-90
2022/04/29 11:39:27;;;;;;;8.60;6.07;;;;;;;;;;5093567;28;20204;-90
2022/04/29 11:41:55;;;;;;;7.87;6.53;;;;;;;;;;5093990;28;20572;-91
2022/04/29 11:44:49;;;;;;;7.00;6.40;;;;;;;;;;5093643;28;20196;-91
2022/04/29 11:47:24;;;;;;;7.17;6.47;;;;;;;;;;5093815;28;20207;-91
2022/04/29 11:49:53;;;;;;;6.37;5.77;;;;;;;;;;5093156;28;20231;-91
2022/04/29 11:52:25;;;;;;;8.97;7.00;;;;;;;;;;5093564;28;20206;-91
2022/04/29 11:54:54;;;;;;;7.50;6.77;;;;;;;;;;5093709;28;20588;-91
2022/04/29 11:57:22;;;;;;;7.00;6.40;;;;;;;;;;5093363;28;20196;-91
2022/04/29 11:59:52;;;;;;;7.87;6.90;;;;;;;;;;5093619;28;20202;-90
2022/04/29 12:02:25;;;;;;;6.73;6.13;;;;;;;;;;5093840;28;20196;-90
2022/04/29 12:04:54;;;;;;;7.90;7.10;;;;;;;;;;5093405;28;20184;-90
2022/04/29 12:07:22;;;;;;;7.47;6.73;;;;;;;;;;5093952;28;20223;-91
2022/04/29 12:09:49;;;;;;;7.20;6.60;;;;;;;;;;5093334;28;20195;-90
2022/04/29 12:12:28;;;;;;;7.57;6.97;;;;;;;;;;5093181;28;20200;-90
2022/04/29 12:15:17;;;;;;;8.23;7.50;;;;;;;;;;5093007;28;20191;-91
2022/04/29 12:17:44;;;;;;;7.23;6.63;;;;;;;;;;5093832;28;20199;-90
2022/04/29 12:20:17;;;;;;;8.43;7.70;;;;;;;;;;5093415;28;20203;-90
2022/04/29 12:22:47;;;;;;;8.27;7.47;;;;;;;;;;5093633;28;20196;-90
2022/04/29 12:25:27;;;;;;;8.13;7.40;;;;;;;;;;5093511;28;20250;-90
2022/04/29 12:28:13;;;;;;;7.73;7.13;;;;;;;;;;5093415;28;20199;-90
2022/04/29 12:36:20;;;;;;;8.00;7.30;;;;;;;;;;5092914;28;20176;-90
2022/04/29 12:38:48;;;;;;;7.90;7.10;;;;;;;;;;5093267;28;20219;-90
2022/04/29 12:41:40;;;;;;;7.37;6.77;;;;;;;;;;5093161;28;20282;-90
2022/04/29 12:44:10;;;;;;;8.33;7.53;;;;;;;;;;5099749;28;20708;-90
2022/04/29 12:46:38;;;;;;;7.63;6.87;;;;;;;;;;5100244;28;20627;-90
2022/04/29 12:49:05;;;;;;;8.30;7.60;;;;;;;;;;5099773;28;20598;-90
2022/04/29 12:51:41;;;;;;;10.17;8.50;;;;;;;;;;5099855;28;20235;-90
2022/04/29 12:54:25;;;;;;;8.57;7.83;;;;;;;;;;5099124;28;20226;-90
2022/04/29 12:57:31;;;;;;;9.03;8.13;;;;;;;;;;5099979;28;20215;-90
2022/04/29 13:00:03;;;;;;;8.80;7.90;;;;;;;;;;5099476;28;20208;-90
2022/04/29 13:02:31;;;;;;;8.97;7.70;;;;;;;;;;5099570;28;20230;-90
2022/04/29 13:05:01;;;;;;;8.23;7.53;;;;;;;;;;5099364;28;20275;-90
2022/04/29 13:07:30;;;;;;;8.50;7.67;;;;;;;;;;5099298;28;20286;-90
2022/04/29 13:10:10;;;;;;;9.37;8.57;;;;;;;;;;5099379;28;20672;-90
2022/04/29 13:12:37;;;;;;;9.00;8.20;;;;;;;;;;5098831;28;20617;-90
2022/04/29 13:15:07;;;;;;;9.63;8.83;;;;;;;;;;5099419;28;20290;-90
2022/04/29 13:17:34;;;;;;;8.60;7.80;;;;;;;;;;5099297;28;20196;-90
2022/04/29 13:20:12;;;;;;;9.07;8.27;;;;;;;;;;5099705;28;20192;-90
2022/04/29 13:22:39;;;;;;;8.40;7.70;;;;;;;;;;5099336;28;20196;-90
2022/04/29 13:25:08;;;;;;;10.77;9.77;;;;;;;;;;5099039;28;20199;-91
2022/04/29 13:27:36;;;;;;;10.30;9.40;;;;;;;;;;5099002;28;20195;-90
2022/04/29 13:30:07;;;;;;;9.60;8.70;;;;;;;;;;5099215;28;20202;-90
2022/04/29 13:32:34;;;;;;;10.60;9.60;;;;;;;;;;5099430;28;20246;-90
2022/04/29 13:35:03;;;;;;;10.93;9.93;;;;;;;;;;5098892;28;20220;-89
2022/04/29 13:37:32;;;;;;;12.53;11.43;;;;;;;;;;5099264;28;20270;-90
2022/04/29 13:40:01;;;;;;;11.07;9.97;;;;;;;;;;5099387;28;20664;-90
2022/04/29 13:42:29;;;;;;;12.17;11.17;;;;;;;;;;5099253;28;20194;-90
2022/04/29 13:44:58;;;;;;;11.87;10.70;;;;;;;;;;5099164;28;20191;-90
2022/04/29 13:47:36;;;;;;;11.83;10.73;;;;;;;;;;5099062;28;20225;-90
2022/04/29 13:50:04;;;;;;;13.60;12.30;;;;;;;;;;5098675;28;20293;-91
2022/04/29 13:55:16;;;;;;;13.07;11.90;;;;;;;;;;5094666;28;20183;-89
2022/04/29 13:57:44;;;;;;;12.63;11.30;;;;;;;;;;5095746;28;20573;-90
2022/04/29 14:00:15;;;;;;;12.20;11.10;;;;;;;;;;5095649;28;20287;-90
2022/04/29 14:02:44;;;;;;;12.37;11.17;;;;;;;;;;5095541;28;20261;-90
2022/04/29 14:05:14;;;;;;;12.17;11.07;;;;;;;;;;5095583;28;20197;-91
2022/04/29 14:07:48;;;;;;;11.20;10.10;;;;;;;;;;5095612;28;20203;-90
2022/04/29 14:10:21;;;;;;;12.17;10.97;;;;;;;;;;5095485;28;20198;-90
2022/04/29 14:12:51;;;;;;;11.80;10.77;;;;;;;;;;5095584;28;20187;-90
2022/04/29 14:15:22;;;;;;;11.83;10.73;;;;;;;;;;5095438;28;20204;-90
2022/04/29 14:17:51;;;;;;;13.17;11.80;;;;;;;;;;5095171;28;20190;-91
2022/04/29 14:20:21;;;;;;;12.03;10.83;;;;;;;;;;5095324;28;20206;-90
2022/04/29 14:22:51;;;;;;;11.83;10.73;;;;;;;;;;5094492;28;20203;-89
2022/04/29 14:25:18;;;;;;;10.30;9.23;;;;;;;;;;5095009;28;20193;-90
2022/04/29 14:27:46;;;;;;;12.50;11.23;;;;;;;;;;5095135;28;20204;-90
2022/04/29 14:30:19;;;;;;;12.50;11.30;;;;;;;;;;5095268;28;20215;-90
2022/04/29 14:32:46;;;;;;;12.47;11.27;;;;;;;;;;5095003;28;20251;-90
2022/04/29 14:35:24;;;;;;;12.87;11.67;;;;;;;;;;5095138;28;20217;-90
2022/04/29 14:37:55;;;;;;;12.33;11.13;;;;;;;;;;5095055;28;20192;-90
2022/04/29 14:40:22;;;;;;;12.80;11.43;;;;;;;;;;5094875;28;20669;-90
2022/04/29 14:42:50;;;;;;;14.07;11.70;;;;;;;;;;5095201;28;20190;-90
2022/04/29 14:45:17;;;;;;;13.50;12.10;;;;;;;;;;5094646;28;20194;-90
2022/04/29 14:47:45;;;;;;;15.20;13.20;;;;;;;;;;5094825;28;20220;-90
2022/04/29 14:50:17;;;;;;;16.73;14.77;;;;;;;;;;5074498;28;20255;-90
2022/04/29 14:52:46;;;;;;;14.50;13.17;;;;;;;;;;5074945;28;20213;-90
2022/04/29 14:55:22;;;;;;;12.17;10.93;;;;;;;;;;5074757;28;20303;-90
2022/04/29 14:57:50;;;;;;;12.10;10.90;;;;;;;;;;5074581;28;20717;-90
2022/04/29 15:00:21;;;;;;;14.80;13.30;;;;;;;;;;5074336;28;20193;-90
2022/04/29 15:02:51;;;;;;;12.87;11.60;;;;;;;;;;5074891;28;20195;-89
2022/04/29 15:05:22;;;;;;;13.43;12.23;;;;;;;;;;5089727;28;20196;-89
2022/04/29 15:07:51;;;;;;;13.47;12.27;;;;;;;;;;5094652;28;20193;-90
2022/04/29 15:15:51;;;;;;;14.47;12.97;;;;;;;;;;5094770;28;20184;-90
2022/04/29 15:18:19;;;;;;;14.70;13.23;;;;;;;;;;5090999;28;20204;-90
2022/04/29 15:20:48;;;;;;;19.07;13.80;;;;;;;;;;5094595;28;20219;-90
2022/04/29 15:23:16;;;;;;;16.60;14.67;;;;;;;;;;5094339;28;20630;-91
2022/04/29 15:25:43;;;;;;;13.90;12.50;;;;;;;;;;5094228;28;20840;-92
2022/04/29 15:28:11;;;;;;;18.67;16.27;;;;;;;;;;5094455;28;20684;-90
2022/04/29 15:30:43;;;;;;;18.77;16.17;;;;;;;;;;5094330;28;20291;-90
2022/04/29 15:33:13;;;;;;;16.73;15.03;;;;;;;;;;5093676;28;20192;-91
2022/04/29 15:35:44;;;;;;;16.07;14.10;;;;;;;;;;5094061;28;20310;-91
2022/04/29 15:38:12;;;;;;;17.17;13.27;;;;;;;;;;5093689;28;20680;-91
2022/04/29 15:40:41;;;;;;;17.47;15.33;;;;;;;;;;5093888;28;20198;-91